Time;durP1;ratioP1;P1;durP2;ratioP2;P2;SDS_P1;SDS_P2;PMS_P1;PMS_P2;Temp;Humidity;BMP_temperature;BMP_pressure;BME280_temperature;BME280_humidity;BME280_pressure;Samples;Min_cycle;Max_cycle;Signal;HPM_P1;HPM_P2
2023/08/24 00:00:05;;;;;;;3.30;3.10;;;;;;;24.92;nan;100674.53;4989252;28;20064;-75
2023/08/24 00:02:31;;;;;;;3.58;3.38;;;;;;;24.92;nan;100674.53;4977627;28;20060;-76
2023/08/24 00:04:56;;;;;;;3.88;3.67;;;;;;;24.93;nan;100665.56;5003800;28;20120;-77
2023/08/24 00:07:21;;;;;;;3.65;3.45;;;;;;;24.93;nan;100662.09;4988992;28;20068;-76
2023/08/24 00:09:47;;;;;;;3.53;3.33;;;;;;;24.92;nan;100652.44;4972540;28;20402;-76
2023/08/24 00:12:13;;;;;;;3.40;3.25;;;;;;;24.92;nan;100653.28;4992109;28;20446;-76
2023/08/24 00:14:38;;;;;;;3.25;3.05;;;;;;;24.93;nan;100648.81;4993093;28;20034;-76
2023/08/24 00:17:04;;;;;;;2.90;2.80;;;;;;;24.92;nan;100636.50;4986070;28;20044;-77
2023/08/24 00:19:29;;;;;;;3.55;3.35;;;;;;;24.92;nan;100625.88;4986182;28;20042;-76
2023/08/24 00:21:55;;;;;;;3.10;3.00;;;;;;;24.92;nan;100632.03;4983633;28;20136;-76
2023/08/24 00:24:20;;;;;;;3.25;3.05;;;;;;;24.92;nan;100636.50;4979835;28;20114;-77
2023/08/24 00:26:45;;;;;;;3.70;3.50;;;;;;;24.92;nan;100641.81;4990523;28;20046;-76
2023/08/24 00:29:11;;;;;;;3.53;3.33;;;;;;;24.92;nan;100644.47;4985987;28;21058;-75
2023/08/24 00:31:36;;;;;;;3.05;2.95;;;;;;;24.92;nan;100641.81;4986182;28;20026;-75
2023/08/24 00:34:01;;;;;;;3.60;3.40;;;;;;;24.92;nan;100647.13;4979197;28;20475;-77
2023/08/24 00:36:27;;;;;;;3.60;3.40;;;;;;;24.92;nan;100641.81;4983283;28;20128;-75
2023/08/24 00:38:53;;;;;;;3.10;3.00;;;;;;;24.93;nan;100640.84;4985855;28;20466;-76
2023/08/24 00:41:18;;;;;;;3.30;3.10;;;;;;;24.91;nan;100646.28;4982654;28;20053;-76
2023/08/24 00:43:44;;;;;;;3.30;3.20;;;;;;;24.92;nan;100650.63;4980467;28;20081;-76
2023/08/24 00:46:09;;;;;;;3.63;3.42;;;;;;;24.92;nan;100663.06;4981528;28;20034;-76
2023/08/24 00:48:35;;;;;;;3.20;3.00;;;;;;;24.91;nan;100659.56;4984989;28;20040;-76
2023/08/24 00:51:01;;;;;;;3.42;3.22;;;;;;;24.92;nan;100663.06;4986276;28;20111;-76
2023/08/24 00:53:28;;;;;;;3.03;2.90;;;;;;;24.93;nan;100670.06;4981443;28;20062;-76
2023/08/24 00:55:53;;;;;;;3.33;3.20;;;;;;;24.92;nan;100669.22;4990207;28;20145;-77
2023/08/24 00:58:20;;;;;;;3.50;3.30;;;;;;;24.92;nan;100665.72;4968446;28;20044;-76
2023/08/24 01:00:45;;;;;;;3.42;3.22;;;;;;;24.91;nan;100662.22;4986578;28;20030;-77
2023/08/24 01:03:10;;;;;;;3.30;3.10;;;;;;;24.91;nan;100654.25;4994490;28;20029;-76
2023/08/24 01:05:36;;;;;;;3.63;3.42;;;;;;;24.92;nan;100663.06;4995873;28;20040;-76
2023/08/24 01:08:01;;;;;;;3.15;2.95;;;;;;;24.92;nan;100658.59;4984837;28;20550;-77
2023/08/24 01:10:34;;;;;;;3.28;3.08;;;;;;;24.91;nan;100659.56;4985062;28;20047;-76
2023/08/24 01:13:09;;;;;;;3.22;3.13;;;;;;;24.91;nan;100656.91;4982364;28;20070;-77
2023/08/24 01:16:06;;;;;;;3.15;3.05;;;;;;;24.91;nan;100662.22;4994998;28;20037;-77
2023/08/24 01:18:33;;;;;;;3.50;3.30;;;;;;;24.92;nan;100665.72;4983962;28;20144;-77
2023/08/24 01:20:59;;;;;;;3.33;3.13;;;;;;;24.92;nan;100669.22;4986133;28;20029;-76
2023/08/24 01:23:47;;;;;;;3.50;3.30;;;;;;;24.91;nan;100662.22;4995339;28;20021;-77
2023/08/24 01:26:16;;;;;;;3.50;3.30;;;;;;;24.90;nan;100665.84;4991216;28;20065;-76
2023/08/24 01:28:43;;;;;;;3.47;3.28;;;;;;;24.90;nan;100671.16;4984235;28;20034;-76
2023/08/24 01:31:09;;;;;;;3.58;3.38;;;;;;;24.91;nan;100664.03;4983889;28;20034;-76
2023/08/24 01:33:34;;;;;;;3.40;3.20;;;;;;;24.90;nan;100671.16;4979726;28;20077;-76
2023/08/24 01:35:59;;;;;;;3.08;2.95;;;;;;;24.91;nan;100672.00;4990464;28;20326;-77
2023/08/24 01:38:25;;;;;;;3.22;3.03;;;;;;;24.90;nan;100671.16;4967241;28;20033;-76
2023/08/24 01:41:19;;;;;;;3.63;3.42;;;;;;;24.90;nan;100670.31;4983404;28;20026;-76
2023/08/24 01:43:46;;;;;;;3.10;3.00;;;;;;;24.91;nan;100661.38;4979112;28;20026;-76
2023/08/24 01:46:14;;;;;;;3.63;3.33;;;;;;;24.89;nan;100656.19;4980835;28;20021;-76
2023/08/24 01:48:40;;;;;;;3.22;3.08;;;;;;;24.90;nan;100659.69;4985150;28;20037;-75
2023/08/24 01:51:06;;;;;;;3.80;3.60;;;;;;;24.90;nan;100665.00;4967489;28;21118;-77
2023/08/24 01:53:32;;;;;;;2.97;2.88;;;;;;;24.90;nan;100672.97;4985470;28;20488;-76
2023/08/24 01:55:57;;;;;;;3.08;2.92;;;;;;;24.90;nan;100665.84;4991274;28;20112;-77
2023/08/24 01:58:22;;;;;;;3.38;3.17;;;;;;;24.89;nan;100653.53;4983524;28;20990;-77
2023/08/24 02:00:48;;;;;;;3.53;3.35;;;;;;;24.90;nan;100660.53;4983784;28;20095;-76
2023/08/24 02:03:13;;;;;;;3.10;3.00;;;;;;;24.89;nan;100661.50;4992065;28;20493;-76
2023/08/24 02:05:38;;;;;;;3.05;2.90;;;;;;;24.90;nan;100665.00;4986181;28;20057;-75
2023/08/24 02:08:04;;;;;;;3.08;2.90;;;;;;;24.90;nan;100657.03;4982975;28;20030;-76
2023/08/24 02:10:29;;;;;;;3.20;3.05;;;;;;;24.88;nan;100659.84;4982868;28;20034;-76
2023/08/24 02:12:54;;;;;;;3.13;2.97;;;;;;;24.89;nan;100658.84;4981795;28;20788;-76
2023/08/24 02:15:20;;;;;;;3.20;3.00;;;;;;;24.89;nan;100656.19;4993962;28;20599;-76
2023/08/24 02:17:45;;;;;;;3.22;3.03;;;;;;;24.90;nan;100662.34;4983482;28;20129;-75
2023/08/24 02:20:13;;;;;;;3.13;2.95;;;;;;;24.89;nan;100658.00;4983069;28;20677;-76
2023/08/24 02:22:39;;;;;;;3.00;2.90;;;;;;;24.90;nan;100663.19;4980549;28;20037;-76
2023/08/24 02:25:05;;;;;;;3.30;3.10;;;;;;;24.87;nan;100655.50;4958925;28;20034;-75
2023/08/24 02:27:31;;;;;;;3.20;3.10;;;;;;;24.88;nan;100659.84;4982848;28;20074;-76
2023/08/24 02:29:57;;;;;;;3.20;3.03;;;;;;;24.88;nan;100657.19;4981674;28;20034;-76
2023/08/24 02:32:22;;;;;;;2.83;2.72;;;;;;;24.88;nan;100656.34;4979422;28;20037;-76
2023/08/24 02:34:47;;;;;;;3.45;3.25;;;;;;;24.88;nan;100653.69;4976590;28;20133;-76
2023/08/24 02:37:13;;;;;;;3.35;3.20;;;;;;;24.88;nan;100648.38;4982186;28;20034;-76
2023/08/24 02:39:38;;;;;;;3.25;3.08;;;;;;;24.87;nan;100636.91;4982996;28;20141;-76
2023/08/24 02:42:03;;;;;;;3.00;2.90;;;;;;;24.88;nan;100627.97;4984255;28;20022;-76
2023/08/24 02:44:29;;;;;;;2.80;2.70;;;;;;;24.87;nan;100620.16;4995351;28;20028;-76
2023/08/24 02:46:54;;;;;;;3.28;3.08;;;;;;;24.87;nan;100623.63;4985602;28;20029;-76
2023/08/24 02:49:20;;;;;;;3.08;2.95;;;;;;;24.87;nan;100615.66;4982926;28;20026;-76
2023/08/24 02:51:46;;;;;;;3.10;3.00;;;;;;;24.87;nan;100613.00;4983477;28;20836;-76
2023/08/24 02:54:11;;;;;;;3.17;2.97;;;;;;;24.87;nan;100598.91;4993972;28;20034;-75
2023/08/24 02:56:36;;;;;;;3.15;2.95;;;;;;;24.87;nan;100591.75;4986365;28;20448;-76
2023/08/24 02:59:02;;;;;;;3.13;2.92;;;;;;;24.87;nan;100598.91;4982088;28;20027;-76
2023/08/24 03:01:27;;;;;;;3.28;3.08;;;;;;;24.87;nan;100606.88;4982355;28;20037;-77
2023/08/24 03:03:52;;;;;;;3.38;3.17;;;;;;;24.87;nan;100622.81;4977795;28;20069;-76
2023/08/24 03:06:18;;;;;;;3.08;2.97;;;;;;;24.87;nan;100617.50;4978788;28;20145;-76
2023/08/24 03:08:44;;;;;;;3.08;2.97;;;;;;;24.86;nan;100603.38;4981673;28;20180;-75
2023/08/24 03:11:09;;;;;;;3.08;2.97;;;;;;;24.86;nan;100600.72;4982258;28;20034;-76
2023/08/24 03:13:37;;;;;;;3.10;2.97;;;;;;;24.86;nan;100592.75;4984572;28;20092;-76
2023/08/24 03:16:04;;;;;;;3.00;2.80;;;;;;;24.86;nan;100590.09;4962546;28;20686;-76
2023/08/24 03:18:30;;;;;;;3.08;2.88;;;;;;;24.87;nan;100597.06;4981419;28;20255;-74
2023/08/24 03:20:55;;;;;;;3.38;3.17;;;;;;;24.86;nan;100600.72;4981981;28;20062;-76
2023/08/24 03:23:21;;;;;;;3.38;3.20;;;;;;;24.85;nan;100599.88;4982043;28;20423;-76
2023/08/24 03:25:46;;;;;;;2.95;2.85;;;;;;;24.86;nan;100590.09;4989576;28;20112;-75
2023/08/24 03:28:11;;;;;;;2.83;2.72;;;;;;;24.86;nan;100584.78;4981845;28;21288;-77
2023/08/24 03:30:39;;;;;;;3.15;2.95;;;;;;;24.85;nan;100553.91;4979377;28;20443;-76
2023/08/24 03:33:05;;;;;;;2.90;2.80;;;;;;;24.84;nan;100534.44;4989080;28;20041;-76
2023/08/24 03:35:31;;;;;;;3.00;2.90;;;;;;;24.83;nan;100516.84;4983000;28;20042;-76
2023/08/24 03:37:56;;;;;;;2.95;2.85;;;;;;;24.83;nan;100505.38;4980777;28;20046;-76
2023/08/24 03:40:22;;;;;;;3.05;2.95;;;;;;;24.84;nan;100504.41;4979454;28;22258;-76
2023/08/24 03:42:47;;;;;;;2.95;2.85;;;;;;;24.84;nan;100496.44;4977923;28;20027;-76
2023/08/24 03:45:12;;;;;;;2.85;2.75;;;;;;;24.84;nan;100501.75;4991094;28;20526;-76
2023/08/24 03:47:38;;;;;;;3.30;3.10;;;;;;;24.84;nan;100504.41;4982202;28;20037;-76
2023/08/24 03:50:03;;;;;;;2.97;2.88;;;;;;;24.83;nan;100508.88;4980672;28;20042;-74
2023/08/24 03:52:29;;;;;;;3.03;2.92;;;;;;;24.84;nan;100504.41;4980942;28;20038;-76
2023/08/24 03:54:54;;;;;;;2.67;2.58;;;;;;;24.83;nan;100511.53;4979171;28;20883;-76
2023/08/24 03:57:20;;;;;;;3.30;3.10;;;;;;;24.83;nan;100510.69;4984882;28;20065;-76
2023/08/24 03:59:45;;;;;;;2.97;2.88;;;;;;;24.83;nan;100514.19;4985058;28;20064;-76
2023/08/24 04:02:11;;;;;;;3.25;3.05;;;;;;;24.83;nan;100514.19;4987793;28;20030;-74
2023/08/24 04:04:36;;;;;;;2.70;2.60;;;;;;;24.83;nan;100521.31;4999122;28;20060;-75
2023/08/24 04:07:02;;;;;;;2.67;2.58;;;;;;;24.83;nan;100516.00;4988025;28;20530;-76
2023/08/24 04:09:28;;;;;;;3.22;3.03;;;;;;;24.83;nan;100518.66;4983649;28;20143;-76
2023/08/24 04:11:54;;;;;;;2.90;2.80;;;;;;;24.82;nan;100517.81;4982970;28;20504;-76
2023/08/24 04:14:19;;;;;;;2.90;2.80;;;;;;;24.82;nan;100511.69;4982575;28;20040;-75
2023/08/24 04:16:45;;;;;;;2.80;2.70;;;;;;;24.82;nan;100511.69;4989755;28;20026;-76
2023/08/24 04:19:10;;;;;;;2.97;2.78;;;;;;;24.82;nan;100509.03;4985299;28;20682;-76
2023/08/24 04:21:35;;;;;;;3.10;3.00;;;;;;;24.82;nan;100506.38;4984239;28;20899;-76
2023/08/24 04:24:00;;;;;;;3.22;3.10;;;;;;;24.82;nan;100515.16;4996408;28;20025;-75
2023/08/24 04:26:26;;;;;;;2.80;2.70;;;;;;;24.82;nan;100509.84;4982384;28;20045;-75
2023/08/24 04:28:51;;;;;;;2.83;2.72;;;;;;;24.82;nan;100525.78;4985297;28;20046;-75
2023/08/24 04:31:17;;;;;;;2.80;2.70;;;;;;;24.83;nan;100542.56;4984741;28;20105;-76
2023/08/24 04:33:42;;;;;;;3.00;2.90;;;;;;;24.83;nan;100540.75;4986288;28;20722;-76
2023/08/24 04:36:08;;;;;;;2.88;2.78;;;;;;;24.82;nan;100538.22;4981584;28;20161;-76
2023/08/24 04:38:33;;;;;;;2.70;2.60;;;;;;;24.82;nan;100533.75;4984726;28;20149;-76
2023/08/24 04:40:59;;;;;;;2.70;2.60;;;;;;;24.82;nan;100530.25;4984916;28;20060;-76
2023/08/24 04:43:24;;;;;;;2.85;2.75;;;;;;;24.81;nan;100523.28;4980377;28;20052;-75
2023/08/24 04:45:54;;;;;;;2.67;2.50;;;;;;;24.81;nan;100532.09;4972348;28;20452;-75
2023/08/24 04:48:25;;;;;;;3.10;2.90;;;;;;;24.82;nan;100536.41;4966818;28;20061;-76
2023/08/24 04:50:52;;;;;;;2.75;2.65;;;;;;;24.81;nan;100537.41;4984136;28;20746;-76
2023/08/24 04:53:18;;;;;;;2.67;2.58;;;;;;;24.82;nan;100530.25;4975713;28;20029;-76
2023/08/24 04:55:44;;;;;;;2.72;2.63;;;;;;;24.81;nan;100539.22;4986412;28;20092;-76
2023/08/24 04:58:10;;;;;;;3.13;3.03;;;;;;;24.81;nan;100536.56;4967273;28;20113;-76
2023/08/24 05:00:36;;;;;;;2.55;2.45;;;;;;;24.82;nan;100535.56;4982539;28;20026;-75
2023/08/24 05:03:03;;;;;;;2.95;2.85;;;;;;;24.81;nan;100532.09;4987625;28;20029;-76
2023/08/24 05:05:29;;;;;;;2.90;2.80;;;;;;;24.81;nan;100536.56;4978486;28;20438;-76
2023/08/24 05:07:55;;;;;;;2.95;2.78;;;;;;;24.80;nan;100533.06;4983236;28;20095;-76
2023/08/24 05:10:20;;;;;;;2.92;2.80;;;;;;;24.81;nan;100539.22;4982723;28;20034;-76
2023/08/24 05:12:46;;;;;;;2.90;2.80;;;;;;;24.81;nan;100539.22;4981746;28;20045;-76
2023/08/24 05:15:12;;;;;;;2.90;2.80;;;;;;;24.81;nan;100539.22;4995679;28;20096;-75
2023/08/24 05:17:38;;;;;;;2.67;2.58;;;;;;;24.80;nan;100530.41;4984120;28;20065;-76
2023/08/24 05:20:04;;;;;;;3.13;3.00;;;;;;;24.80;nan;100534.88;4984082;28;20025;-75
2023/08/24 05:22:29;;;;;;;2.88;2.75;;;;;;;24.80;nan;100532.22;4996887;28;20034;-76
2023/08/24 05:24:54;;;;;;;2.85;2.75;;;;;;;24.80;nan;100541.03;4981719;28;20077;-76
2023/08/24 05:27:20;;;;;;;2.88;2.78;;;;;;;24.80;nan;100550.81;4984350;28;20045;-76
2023/08/24 05:29:45;;;;;;;2.95;2.75;;;;;;;24.80;nan;100561.44;4983810;28;20626;-75
2023/08/24 05:32:10;;;;;;;2.70;2.50;;;;;;;24.80;nan;100580.88;4987243;28;20533;-75
2023/08/24 05:34:36;;;;;;;2.83;2.63;;;;;;;24.82;nan;100607.28;4989545;28;20772;-75
2023/08/24 05:37:01;;;;;;;2.78;2.67;;;;;;;24.81;nan;100629.50;4984006;28;20832;-76
2023/08/24 05:39:26;;;;;;;2.83;2.67;;;;;;;24.82;nan;100655.06;4984592;28;20486;-75
2023/08/24 05:41:52;;;;;;;2.70;2.60;;;;;;;24.81;nan;100664.84;4985036;28;20141;-76
2023/08/24 05:44:21;;;;;;;3.03;2.83;;;;;;;24.81;nan;100672.81;4979106;28;20034;-76
2023/08/24 05:46:46;;;;;;;2.92;2.80;;;;;;;24.81;nan;100686.09;4982515;28;20216;-76
2023/08/24 05:49:12;;;;;;;2.78;2.67;;;;;;;24.81;nan;100679.97;4982472;28;20803;-75
2023/08/24 05:51:37;;;;;;;3.08;2.90;;;;;;;24.81;nan;100677.28;4982345;28;20159;-76
2023/08/24 05:54:03;;;;;;;2.60;2.50;;;;;;;24.79;nan;100673.94;4977948;28;20067;-76
2023/08/24 05:56:28;;;;;;;3.15;2.95;;;;;;;24.79;nan;100673.94;4980457;28;20754;-75
2023/08/24 05:58:54;;;;;;;2.70;2.60;;;;;;;24.79;nan;100660.69;4983777;28;20070;-75
2023/08/24 06:01:19;;;;;;;3.10;2.90;;;;;;;24.78;nan;100651.84;4981485;28;20030;-76
2023/08/24 06:03:45;;;;;;;2.90;2.80;;;;;;;24.78;nan;100651.84;4977333;28;20045;-76
2023/08/24 06:06:10;;;;;;;3.08;2.88;;;;;;;24.77;nan;100646.69;4980211;28;20121;-76
2023/08/24 06:08:36;;;;;;;2.78;2.65;;;;;;;24.78;nan;100648.34;4982802;28;20469;-76
2023/08/24 06:11:01;;;;;;;3.05;2.85;;;;;;;24.77;nan;100650.16;4983514;28;20418;-76
2023/08/24 06:13:27;;;;;;;2.70;2.60;;;;;;;24.78;nan;100651.00;4985041;28;20030;-75
2023/08/24 06:15:54;;;;;;;2.90;2.70;;;;;;;24.77;nan;100639.53;4979671;28;20058;-76
2023/08/24 06:18:19;;;;;;;3.22;3.10;;;;;;;24.77;nan;100628.09;4981364;28;20116;-75
2023/08/24 06:20:45;;;;;;;2.80;2.70;;;;;;;24.76;nan;100605.19;4983115;28;20042;-76
2023/08/24 06:23:13;;;;;;;2.95;2.75;;;;;;;24.76;nan;100586.59;4986778;28;20033;-75
2023/08/24 06:25:38;;;;;;;3.05;2.90;;;;;;;24.75;nan;100592.88;4990997;28;20046;-76
2023/08/24 06:28:04;;;;;;;2.70;2.50;;;;;;;24.75;nan;100604.34;4982816;28;20046;-75
2023/08/24 06:30:32;;;;;;;2.80;2.70;;;;;;;24.76;nan;100607.81;4982444;28;20529;-75
2023/08/24 06:32:58;;;;;;;2.80;2.70;;;;;;;24.77;nan;100604.19;4970272;28;20402;-76
2023/08/24 06:35:24;;;;;;;3.10;2.90;;;;;;;24.76;nan;100600.69;4976241;28;20045;-76
2023/08/24 06:37:49;;;;;;;2.60;2.50;;;;;;;24.76;nan;100578.63;4981624;28;20033;-77
2023/08/24 06:40:14;;;;;;;2.95;2.85;;;;;;;24.76;nan;100581.28;4982217;28;20468;-75
2023/08/24 06:42:40;;;;;;;2.78;2.58;;;;;;;24.74;nan;100578.78;4980359;28;20517;-76
2023/08/24 06:45:06;;;;;;;2.65;2.55;;;;;;;24.75;nan;100563.69;4975709;28;20113;-76
2023/08/24 06:47:32;;;;;;;2.92;2.83;;;;;;;24.76;nan;100560.03;4981442;28;20029;-76
2023/08/24 06:49:57;;;;;;;3.30;3.10;;;;;;;24.75;nan;100558.38;4965553;28;20030;-76
2023/08/24 06:52:24;;;;;;;3.30;3.10;;;;;;;24.75;nan;100564.50;4980731;28;20029;-76
2023/08/24 06:54:53;;;;;;;2.88;2.78;;;;;;;24.76;nan;100575.97;4985477;28;20028;-76
2023/08/24 06:57:18;;;;;;;3.13;2.92;;;;;;;24.76;nan;100573.31;4982277;28;20092;-76
2023/08/24 06:59:44;;;;;;;3.17;2.97;;;;;;;24.76;nan;100573.31;4980933;28;20133;-75
2023/08/24 07:02:09;;;;;;;2.70;2.60;;;;;;;24.75;nan;100566.34;4984668;28;20108;-76
2023/08/24 07:04:36;;;;;;;3.20;3.00;;;;;;;24.76;nan;100571.50;4992763;28;20061;-76
2023/08/24 07:07:02;;;;;;;2.97;2.78;;;;;;;24.75;nan;100571.63;4980202;28;20084;-76
2023/08/24 07:09:28;;;;;;;2.58;2.47;;;;;;;24.76;nan;100568.00;4981791;28;20038;-76
2023/08/24 07:11:53;;;;;;;3.05;2.85;;;;;;;24.76;nan;100568.00;4981990;28;20137;-76
2023/08/24 07:14:18;;;;;;;3.15;2.95;;;;;;;24.75;nan;100561.00;4976026;28;20122;-74
2023/08/24 07:16:44;;;;;;;2.65;2.45;;;;;;;24.75;nan;100567.16;4979935;28;20026;-76
2023/08/24 07:19:10;;;;;;;2.70;2.60;;;;;;;24.76;nan;100568.00;4983496;28;20122;-77
2023/08/24 07:21:35;;;;;;;2.88;2.67;;;;;;;24.76;nan;100566.19;4982032;28;20029;-77
2023/08/24 07:24:01;;;;;;;2.90;2.72;;;;;;;24.77;nan;100565.19;4994274;28;20029;-77
2023/08/24 07:26:26;;;;;;;2.85;2.75;;;;;;;24.76;nan;100563.53;4988470;28;20522;-77
2023/08/24 07:28:52;;;;;;;2.85;2.75;;;;;;;24.76;nan;100560.03;4987938;28;20022;-75
2023/08/24 07:31:18;;;;;;;2.97;2.78;;;;;;;24.76;nan;100568.00;4988741;28;20109;-77
2023/08/24 07:33:44;;;;;;;2.97;2.88;;;;;;;24.76;nan;100574.16;4983101;28;20042;-76
2023/08/24 07:36:09;;;;;;;2.92;2.72;;;;;;;24.76;nan;100578.63;4983952;28;20030;-77
2023/08/24 07:38:34;;;;;;;3.25;3.05;;;;;;;24.77;nan;100596.22;4988107;28;20038;-77
2023/08/24 07:41:00;;;;;;;3.03;2.83;;;;;;;24.77;nan;100602.38;4987020;28;20045;-76
2023/08/24 07:43:25;;;;;;;2.85;2.75;;;;;;;24.76;nan;100599.88;4982090;28;20030;-75
2023/08/24 07:45:52;;;;;;;2.80;2.70;;;;;;;24.77;nan;100604.19;4984899;28;20137;-77
2023/08/24 07:48:17;;;;;;;2.92;2.80;;;;;;;24.76;nan;100613.13;4986238;28;20018;-77
2023/08/24 07:50:42;;;;;;;2.67;2.58;;;;;;;24.76;nan;100610.47;4986151;28;21436;-77
2023/08/24 07:53:08;;;;;;;3.00;2.80;;;;;;;24.77;nan;100604.19;4982848;28;20450;-76
2023/08/24 07:55:34;;;;;;;2.90;2.70;;;;;;;24.75;nan;100600.84;4980886;28;20388;-76
2023/08/24 07:57:59;;;;;;;2.90;2.80;;;;;;;24.76;nan;100594.56;4987376;28;20284;-77
2023/08/24 08:00:24;;;;;;;3.00;2.90;;;;;;;24.76;nan;100607.81;4986851;28;20056;-76
2023/08/24 08:02:51;;;;;;;3.10;2.90;;;;;;;24.76;nan;100602.53;4988175;28;20057;-75
2023/08/24 08:05:17;;;;;;;3.10;2.90;;;;;;;24.77;nan;100596.22;4980364;28;20106;-76
2023/08/24 08:07:42;;;;;;;3.00;2.80;;;;;;;24.76;nan;100600.69;4987535;28;20041;-75
2023/08/24 08:10:08;;;;;;;2.92;2.72;;;;;;;24.76;nan;100594.56;4984986;28;20823;-76
2023/08/24 08:12:35;;;;;;;3.00;2.80;;;;;;;24.76;nan;100589.25;4990331;28;20029;-75
2023/08/24 08:15:01;;;;;;;2.45;2.35;;;;;;;24.75;nan;100582.25;4998598;28;20053;-75
2023/08/24 08:17:27;;;;;;;2.85;2.70;;;;;;;24.75;nan;100572.47;4984503;28;20038;-76
2023/08/24 08:19:59;;;;;;;2.80;2.60;;;;;;;24.74;nan;100559.34;4985436;28;20166;-77
2023/08/24 08:22:25;;;;;;;3.08;2.85;;;;;;;24.75;nan;100555.72;4988774;28;20144;-76
2023/08/24 08:24:51;;;;;;;2.95;2.83;;;;;;;24.74;nan;100546.06;4998862;28;20185;-76
2023/08/24 08:27:16;;;;;;;2.85;2.65;;;;;;;24.74;nan;100535.44;4986337;28;20057;-77
2023/08/24 08:29:42;;;;;;;3.10;2.90;;;;;;;24.76;nan;100536.97;4985798;28;20065;-76
2023/08/24 08:32:08;;;;;;;3.08;2.92;;;;;;;24.76;nan;100530.81;4989294;28;20033;-77
2023/08/24 08:34:33;;;;;;;2.70;2.60;;;;;;;24.76;nan;100522.88;4999226;28;20484;-77
2023/08/24 08:36:58;;;;;;;2.63;2.53;;;;;;;24.75;nan;100505.25;4989245;28;20038;-77
2023/08/24 08:39:24;;;;;;;2.78;2.65;;;;;;;24.76;nan;100493.66;4984632;28;20033;-76
2023/08/24 08:41:49;;;;;;;3.08;2.88;;;;;;;24.76;nan;100491.00;4985477;28;20767;-76
2023/08/24 08:44:15;;;;;;;3.00;2.80;;;;;;;24.76;nan;100488.34;4978592;28;20132;-76
2023/08/24 08:46:41;;;;;;;3.22;3.03;;;;;;;24.76;nan;100494.50;4983757;28;20033;-77
2023/08/24 08:49:07;;;;;;;2.95;2.78;;;;;;;24.76;nan;100493.66;4984045;28;20034;-77
2023/08/24 08:51:36;;;;;;;2.70;2.58;;;;;;;24.76;nan;100473.25;4968984;28;20076;-76
2023/08/24 08:54:02;;;;;;;2.88;2.78;;;;;;;24.77;nan;100474.09;4998246;28;20068;-76
2023/08/24 08:56:29;;;;;;;3.08;2.97;;;;;;;24.77;nan;100474.09;4991498;28;20038;-76
2023/08/24 08:58:55;;;;;;;3.10;2.90;;;;;;;24.77;nan;100484.69;4983996;28;20112;-76
2023/08/24 09:01:21;;;;;;;3.22;3.03;;;;;;;24.77;nan;100495.31;4983833;28;20030;-77
2023/08/24 09:03:46;;;;;;;2.85;2.75;;;;;;;24.77;nan;100492.66;4978986;28;20026;-76
2023/08/24 09:06:11;;;;;;;2.80;2.60;;;;;;;24.76;nan;100491.84;4984050;28;20612;-77
2023/08/24 09:08:37;;;;;;;2.70;2.60;;;;;;;24.78;nan;100481.06;4985735;28;20034;-77
2023/08/24 09:11:03;;;;;;;3.17;2.97;;;;;;;24.77;nan;100469.59;4969920;28;20041;-77
2023/08/24 09:13:29;;;;;;;3.05;2.85;;;;;;;24.78;nan;100465.13;4978305;28;20065;-77
2023/08/24 09:16:03;;;;;;;2.95;2.75;;;;;;;24.76;nan;100452.00;4988492;28;20038;-76
2023/08/24 09:18:41;;;;;;;2.80;2.70;;;;;;;24.77;nan;100442.22;4986316;28;20061;-76
2023/08/24 09:21:10;;;;;;;2.75;2.60;;;;;;;24.77;nan;100436.91;4986016;28;20033;-76
2023/08/24 09:23:35;;;;;;;;;;;;;;;24.77;nan;100429.78;4996725;28;20037;-76
2023/08/24 09:26:00;;;;;;;2.70;2.50;;;;;;;24.77;nan;100420.97;4993632;28;20523;-76
2023/08/24 09:28:26;;;;;;;3.20;3.00;;;;;;;24.77;nan;100421.81;4984029;28;20029;-76
2023/08/24 09:30:54;;;;;;;3.33;3.15;;;;;;;24.79;nan;100419.88;4985310;28;20057;-78
2023/08/24 09:33:22;;;;;;;3.15;2.95;;;;;;;24.79;nan;100429.66;4993326;28;20025;-76
2023/08/24 09:35:53;;;;;;;2.80;2.70;;;;;;;24.79;nan;100427.84;4977319;28;20540;-76
2023/08/24 09:38:20;;;;;;;2.90;2.70;;;;;;;24.78;nan;100418.19;4984616;28;20140;-75
2023/08/24 09:40:50;;;;;;;3.10;2.90;;;;;;;24.79;nan;100408.41;4984040;28;20030;-76
2023/08/24 09:43:16;;;;;;;3.25;2.95;;;;;;;24.78;nan;100407.56;4992729;28;20026;-76
2023/08/24 09:45:51;;;;;;;3.10;2.90;;;;;;;24.79;nan;100405.75;4992912;28;20026;-75
2023/08/24 09:48:17;;;;;;;2.92;2.72;;;;;;;24.79;nan;100389.84;4982166;28;20096;-75
2023/08/24 09:50:46;;;;;;;2.88;2.75;;;;;;;24.78;nan;100391.63;4983312;28;20370;-74
2023/08/24 09:53:20;;;;;;;3.10;2.90;;;;;;;24.80;nan;100380.88;4984550;28;20025;-75
2023/08/24 09:55:54;;;;;;;3.17;2.97;;;;;;;24.80;nan;100380.88;4991564;28;20429;-75
2023/08/24 09:58:20;;;;;;;3.05;2.85;;;;;;;24.80;nan;100370.25;4982997;28;20030;-76
2023/08/24 10:00:47;;;;;;;3.40;3.20;;;;;;;24.80;nan;100365.78;4982319;28;20045;-76
2023/08/24 10:03:18;;;;;;;3.20;2.90;;;;;;;24.80;nan;100359.63;4991245;28;20029;-76
2023/08/24 10:05:44;;;;;;;2.92;2.72;;;;;;;24.80;nan;100356.97;4992680;28;20057;-76
2023/08/24 10:08:10;;;;;;;3.03;2.83;;;;;;;24.80;nan;100349.84;4983047;28;20105;-76
2023/08/24 10:10:36;;;;;;;3.00;2.80;;;;;;;24.81;nan;100340.91;4983431;28;20452;-76
2023/08/24 10:13:08;;;;;;;3.30;2.92;;;;;;;24.81;nan;100342.72;4971651;28;20030;-75
2023/08/24 10:15:34;;;;;;;2.92;2.83;;;;;;;24.80;nan;100331.28;4979646;28;20551;-76
2023/08/24 10:18:01;;;;;;;3.20;3.00;;;;;;;24.81;nan;100326.78;4983414;28;20699;-75
2023/08/24 10:20:26;;;;;;;3.03;2.83;;;;;;;24.80;nan;100325.94;4983556;28;20132;-76
2023/08/24 10:22:52;;;;;;;3.13;2.92;;;;;;;24.80;nan;100320.66;4990932;28;20048;-77
2023/08/24 10:25:18;;;;;;;3.17;2.97;;;;;;;24.81;nan;100322.31;4987010;28;20129;-76
2023/08/24 10:27:45;;;;;;;3.13;2.92;;;;;;;24.81;nan;100306.38;4983616;28;20082;-77
2023/08/24 10:30:12;;;;;;;3.10;2.90;;;;;;;24.82;nan;100307.22;4982236;28;20513;-77
2023/08/24 10:32:37;;;;;;;3.40;3.20;;;;;;;24.81;nan;100314.34;4989136;28;20034;-77
2023/08/24 10:35:03;;;;;;;2.70;2.60;;;;;;;24.81;nan;100309.03;4990216;28;20026;-75
2023/08/24 10:37:28;;;;;;;2.70;2.60;;;;;;;24.82;nan;100310.69;4983350;28;20481;-76
2023/08/24 10:39:54;;;;;;;2.65;2.53;;;;;;;24.81;nan;100303.72;4984564;28;20030;-76
2023/08/24 10:42:21;;;;;;;3.13;2.92;;;;;;;24.82;nan;100307.22;4986149;28;20096;-76
2023/08/24 10:44:47;;;;;;;3.47;3.28;;;;;;;24.82;nan;100299.25;4986880;28;20132;-77
2023/08/24 10:47:14;;;;;;;3.40;3.20;;;;;;;24.82;nan;100293.94;4983091;28;20029;-76
2023/08/24 10:49:44;;;;;;;3.08;2.90;;;;;;;24.82;nan;100288.63;4983262;28;20026;-76
2023/08/24 10:52:22;;;;;;;2.75;2.55;;;;;;;24.82;nan;100283.31;4985815;28;20030;-77
2023/08/24 10:54:48;;;;;;;3.10;2.90;;;;;;;24.82;nan;100276.19;4989550;28;20237;-76
2023/08/24 10:57:27;;;;;;;3.22;3.03;;;;;;;24.82;nan;100270.03;4985923;28;20040;-75
2023/08/24 11:00:05;;;;;;;;;;;;;;;24.83;nan;100271.72;4983097;28;20034;-77
2023/08/24 11:02:40;;;;;;;2.90;2.70;;;;;;;24.83;nan;100267.22;4988626;28;19917;-76
2023/08/24 11:05:18;;;;;;;2.95;2.75;;;;;;;24.82;nan;100256.75;4996554;28;20029;-75
2023/08/24 11:07:56;;;;;;;3.50;3.30;;;;;;;24.83;nan;100261.09;4984009;28;20820;-76
2023/08/24 11:10:23;;;;;;;2.97;2.78;;;;;;;24.83;nan;100261.91;4983219;28;20221;-77
2023/08/24 11:13:06;;;;;;;3.13;2.92;;;;;;;24.83;nan;100266.41;4980766;28;20049;-77
2023/08/24 11:15:39;;;;;;;2.75;2.55;;;;;;;24.84;nan;100270.72;4990644;28;20203;-76
2023/08/24 11:18:24;;;;;;;2.92;2.72;;;;;;;24.84;nan;100268.91;4983357;28;20139;-76
2023/08/24 11:20:54;;;;;;;2.78;2.67;;;;;;;24.84;nan;100257.44;4983941;28;20383;-77
2023/08/24 11:23:20;;;;;;;2.63;2.53;;;;;;;24.84;nan;100254.78;4978900;28;20116;-76
2023/08/24 11:25:46;;;;;;;2.80;2.70;;;;;;;24.83;nan;100245.16;4980179;28;20034;-77
2023/08/24 11:28:17;;;;;;;3.40;3.20;;;;;;;24.84;nan;100249.47;4982843;28;20065;-77
2023/08/24 11:30:44;;;;;;;2.90;2.70;;;;;;;24.84;nan;100246.81;4965075;28;20026;-76
2023/08/24 11:33:11;;;;;;;3.08;2.88;;;;;;;24.84;nan;100237.03;4988243;28;20526;-77
2023/08/24 11:35:37;;;;;;;2.85;2.70;;;;;;;24.85;nan;100229.94;4962005;28;20034;-77
2023/08/24 11:38:03;;;;;;;3.00;2.80;;;;;;;24.83;nan;100227.41;4982908;28;20520;-76